createdAt,value
2023-08-14T00:14:39.880Z,52
2023-08-14T00:29:39.841Z,53
2023-08-14T00:44:39.849Z,54
2023-08-14T00:59:39.768Z,54
2023-08-14T01:14:39.793Z,55
2023-08-14T01:29:39.740Z,55
2023-08-14T01:44:39.731Z,56
2023-08-14T01:59:39.667Z,57
2023-08-14T02:14:39.706Z,58
2023-08-14T02:29:39.600Z,60
2023-08-14T02:44:39.613Z,61
2023-08-14T02:59:39.576Z,62
2023-08-14T03:14:39.580Z,63
2023-08-14T03:29:39.498Z,63
2023-08-14T03:44:39.545Z,64
2023-08-14T03:59:39.440Z,65
2023-08-14T04:14:39.490Z,65
2023-08-14T04:29:39.383Z,65
2023-08-14T04:44:39.454Z,67
2023-08-14T04:59:39.400Z,68
2023-08-14T05:14:39.359Z,68
2023-08-14T05:29:39.279Z,66
2023-08-14T05:44:39.260Z,65
2023-08-14T05:59:39.262Z,66
2023-08-14T06:14:40.188Z,66
2023-08-14T06:29:39.190Z,68
2023-08-14T06:44:39.228Z,67
2023-08-14T06:59:39.134Z,68
2023-08-14T07:14:39.156Z,70
2023-08-14T07:29:39.089Z,68
2023-08-14T07:44:39.061Z,65
2023-08-14T07:59:39.023Z,65
2023-08-14T08:14:39.055Z,64
2023-08-14T08:29:38.958Z,63
2023-08-14T08:44:38.955Z,62
2023-08-14T08:59:38.904Z,60
2023-08-14T09:14:38.907Z,59
2023-08-14T09:29:38.892Z,56
2023-08-14T09:44:38.866Z,53
2023-08-14T09:59:38.799Z,52
2023-08-14T10:14:38.823Z,51
2023-08-14T10:29:38.734Z,50
2023-08-14T10:44:38.782Z,51
2023-08-14T10:59:38.678Z,51
2023-08-14T11:14:38.710Z,51
2023-08-14T11:44:38.654Z,49
2023-08-14T11:59:38.596Z,48
2023-08-14T12:14:38.591Z,47
2023-08-14T12:29:38.568Z,47
2023-08-14T12:44:38.533Z,46
2023-08-14T12:59:38.494Z,46
2023-08-14T13:14:38.472Z,45
2023-08-14T13:29:38.814Z,46
2023-08-14T13:44:38.434Z,46
2023-08-14T13:59:38.392Z,45
2023-08-14T14:14:38.376Z,45
2023-08-14T14:29:38.334Z,45
2023-08-14T14:44:38.330Z,46
2023-08-14T14:59:38.262Z,44
2023-08-14T15:14:38.303Z,45
2023-08-14T15:29:38.234Z,44
2023-08-14T15:44:38.224Z,44
2023-08-14T15:59:38.164Z,43
2023-08-14T16:14:38.176Z,42
2023-08-14T16:29:38.158Z,42
2023-08-14T16:44:38.089Z,43
2023-08-14T16:59:38.036Z,42
2023-08-14T17:14:38.082Z,42
2023-08-14T17:29:38.006Z,45
2023-08-14T17:44:37.997Z,46
2023-08-14T17:59:37.920Z,47
2023-08-14T18:14:37.948Z,47
2023-08-14T18:29:37.874Z,48
2023-08-14T18:44:37.871Z,49
2023-08-14T18:59:37.820Z,49
2023-08-14T19:14:37.843Z,49
2023-08-14T19:29:37.791Z,48
2023-08-14T19:44:37.796Z,47
2023-08-14T19:59:37.745Z,47
2023-08-14T20:14:37.739Z,46
2023-08-14T20:29:37.636Z,47
2023-08-14T20:44:37.696Z,47
2023-08-14T20:59:37.605Z,47
2023-08-14T21:14:37.641Z,48
2023-08-14T21:29:37.557Z,48
2023-08-14T21:44:37.571Z,49
2023-08-14T21:59:37.500Z,49
2023-08-14T22:14:37.507Z,50
2023-08-14T22:29:37.427Z,50
2023-08-14T22:44:37.420Z,50
2023-08-14T22:59:37.398Z,50
2023-08-14T23:14:37.390Z,50
2023-08-14T23:29:37.325Z,51
2023-08-14T23:44:37.352Z,52
2023-08-14T23:59:37.278Z,53
